createdAt,value
2018-08-10T00:01:08.730Z,98318.81
2018-08-10T00:03:40.405Z,98322.77
2018-08-10T00:06:12.204Z,98328.56
2018-08-10T00:08:44.404Z,98329.44
2018-08-10T00:11:14.703Z,98336.50
2018-08-10T00:13:45.802Z,98336.69
2018-08-10T00:16:20.642Z,98340.80
2018-08-10T00:18:51.114Z,98346.41
2018-08-10T00:21:21.381Z,98349.19
2018-08-10T00:23:51.492Z,98351.83
2018-08-10T00:26:22.902Z,98354.06
2018-08-10T00:28:54.377Z,98366.48
2018-08-10T00:31:25.484Z,98361.50
2018-08-10T00:33:57.176Z,98368.08
2018-08-10T00:36:28.961Z,98372.55
2018-08-10T00:39:00.446Z,98374.98
2018-08-10T00:41:30.993Z,98375.63
2018-08-10T00:44:12.404Z,98373.23
2018-08-10T00:46:43.848Z,98372.53
2018-08-10T00:49:14.209Z,98378.75
2018-08-10T00:51:44.682Z,98377.14
2018-08-10T00:54:14.864Z,98379.48
2018-08-10T00:56:46.871Z,98377.27
2018-08-10T00:59:18.187Z,98376.58
2018-08-10T01:01:48.622Z,98375.06
2018-08-10T01:04:19.171Z,98373.94
2018-08-10T01:06:51.659Z,98373.23
2018-08-10T01:09:24.225Z,98373.58
2018-08-10T01:11:55.876Z,98386.08
2018-08-10T01:14:26.919Z,98384.57
2018-08-10T01:16:57.571Z,98379.25
2018-08-10T01:19:28.510Z,98377.84
2018-08-10T01:22:00.012Z,98379.96
2018-08-10T01:24:31.331Z,98378.10
2018-08-10T01:27:01.451Z,98376.09
2018-08-10T01:29:32.367Z,98373.81
2018-08-10T01:32:03.123Z,98374.48
2018-08-10T01:34:34.368Z,98376.60
2018-08-10T01:37:05.365Z,98382.81
2018-08-10T01:39:36.150Z,98376.42
2018-08-10T01:42:07.976Z,98385.83
2018-08-10T01:44:38.350Z,98380.09
2018-08-10T01:47:10.525Z,98381.95
2018-08-10T01:49:40.897Z,98371.86
2018-08-10T01:52:11.021Z,98380.52
2018-08-10T01:54:41.335Z,98387.32
2018-08-10T01:57:11.525Z,98392.74
2018-08-10T01:59:42.774Z,98398.93
2018-08-10T02:02:13.609Z,98402.39
2018-08-10T02:04:44.319Z,98395.42
2018-08-10T02:07:15.245Z,98397.02
2018-08-10T02:09:45.589Z,98393.92
2018-08-10T02:12:17.233Z,98403.93
2018-08-10T02:14:48.388Z,98387.92
2018-08-10T02:17:19.842Z,98402.27
2018-08-10T02:19:50.601Z,98398.08
2018-08-10T02:22:21.731Z,98406.46
2018-08-10T02:24:52.963Z,98400.22
2018-08-10T02:27:23.605Z,98407.13
2018-08-10T02:29:55.045Z,98409.66
2018-08-10T02:32:25.611Z,98415.86
2018-08-10T02:34:56.098Z,98416.02
2018-08-10T02:37:27.501Z,98420.11
2018-08-10T02:39:58.214Z,98414.69
2018-08-10T02:42:28.802Z,98421.80
2018-08-10T02:44:59.200Z,98418.95
2018-08-10T02:47:30.045Z,98419.55
2018-08-10T02:50:00.667Z,98416.66
2018-08-10T02:52:31.668Z,98428.83
2018-08-10T02:55:01.802Z,98436.31
2018-08-10T02:57:31.980Z,98445.61
2018-08-10T03:00:02.719Z,98440.08
2018-08-10T03:02:33.320Z,98443.69
2018-08-10T03:05:05.208Z,98429.80
2018-08-10T03:07:36.826Z,98451.50
2018-08-10T03:10:08.294Z,98457.67
2018-08-10T03:12:39.350Z,98461.87
2018-08-10T03:15:13.264Z,98459.35
2018-08-10T03:17:44.677Z,98469.92
2018-08-10T03:20:15.505Z,98468.98
2018-08-10T03:22:45.664Z,98480.65
2018-08-10T03:25:17.459Z,98482.42
2018-08-10T03:27:55.653Z,98486.28
2018-08-10T03:30:25.734Z,98475.44
2018-08-10T03:32:57.871Z,98480.25
2018-08-10T03:35:30.562Z,98480.73
2018-08-10T03:38:01.192Z,98489.48
2018-08-10T03:40:32.260Z,98488.34
2018-08-10T03:43:03.184Z,98488.97
2018-08-10T03:45:34.004Z,98490.73
2018-08-10T03:48:05.005Z,98497.58
2018-08-10T03:50:36.494Z,98497.80
2018-08-10T03:53:08.299Z,98513.74
2018-08-10T03:55:38.884Z,98509.39
2018-08-10T03:58:09.039Z,98508.40
2018-08-10T04:00:39.731Z,98499.08
2018-08-10T04:03:10.823Z,98504.09
2018-08-10T04:05:41.253Z,98504.92
2018-08-10T04:08:12.675Z,98518.02
2018-08-10T04:10:44.888Z,98509.47
2018-08-10T04:13:15.556Z,98520.77
2018-08-10T04:15:45.686Z,98525.29
2018-08-10T04:18:17.575Z,98530.95
2018-08-10T04:20:48.947Z,98537.23
2018-08-10T04:23:20.579Z,98529.72
2018-08-10T04:25:52.195Z,98540.45
2018-08-10T04:28:22.309Z,98548.38
2018-08-10T04:30:52.425Z,98558.86
2018-08-10T04:33:23.249Z,98542.89
2018-08-10T04:35:54.247Z,98560.77
2018-08-10T04:38:25.637Z,98581.76
2018-08-10T04:40:56.593Z,98588.92
2018-08-10T04:43:26.880Z,98584.67
2018-08-10T04:45:57.305Z,98592.36
2018-08-10T04:48:28.025Z,98608.16
2018-08-10T04:50:58.381Z,98596.59
2018-08-10T04:53:29.487Z,98607.44
2018-08-10T04:56:00.347Z,98608.38
2018-08-10T04:58:32.152Z,98611.68
2018-08-10T05:01:04.603Z,98613.09
2018-08-10T05:03:36.462Z,98618.55
2018-08-10T05:06:06.690Z,98626.10
2018-08-10T05:08:37.813Z,98629.64
2018-08-10T05:11:08.408Z,98628.36
2018-08-10T05:13:38.553Z,98636.03
2018-08-10T05:16:09.521Z,98650.61
2018-08-10T05:18:40.995Z,98653.88
2018-08-10T05:21:13.607Z,98656.56
2018-08-10T05:23:44.905Z,98649.01
2018-08-10T05:26:16.630Z,98656.06
2018-08-10T05:28:47.197Z,98656.06
2018-08-10T05:31:17.903Z,98670.59
2018-08-10T05:33:48.602Z,98663.00
2018-08-10T05:36:19.647Z,98667.55
2018-08-10T05:38:50.258Z,98670.25
2018-08-10T05:41:21.537Z,98680.60
2018-08-10T05:43:51.775Z,98684.64
2018-08-10T05:46:22.157Z,98694.74
2018-08-10T05:48:54.001Z,98701.02
2018-08-10T05:51:25.128Z,98691.46
2018-08-10T05:53:56.227Z,98705.36
2018-08-10T05:56:26.486Z,98708.86
2018-08-10T05:58:57.188Z,98713.11
2018-08-10T06:01:27.495Z,98718.73
2018-08-10T06:03:58.041Z,98724.82
2018-08-10T06:06:28.504Z,98719.06
2018-08-10T06:08:59.009Z,98744.70
2018-08-10T06:11:29.197Z,98746.38
2018-08-10T06:13:59.334Z,98746.06
2018-08-10T06:16:30.577Z,98741.69
2018-08-10T06:19:02.080Z,98741.39
2018-08-10T06:21:32.971Z,98754.73
2018-08-10T06:24:03.425Z,98755.66
2018-08-10T06:26:33.834Z,98764.52
2018-08-10T06:29:04.756Z,98770.77
2018-08-10T06:31:35.278Z,98761.64
2018-08-10T06:34:06.724Z,98763.64
2018-08-10T06:36:38.083Z,98772.70
2018-08-10T06:39:10.610Z,98780.67
2018-08-10T06:41:41.735Z,98778.50
2018-08-10T06:44:12.874Z,98793.12
2018-08-10T06:46:43.884Z,98794.14
2018-08-10T06:49:17.022Z,98796.44
2018-08-10T06:51:48.504Z,98802.06
2018-08-10T06:54:20.698Z,98812.10
2018-08-10T06:56:51.606Z,98814.92
2018-08-10T06:59:21.842Z,98804.75
2018-08-10T07:01:52.206Z,98805.06
2018-08-10T07:04:22.399Z,98819.61
2018-08-10T07:06:53.404Z,98805.52
2018-08-10T07:09:24.703Z,98835.38
2018-08-10T07:11:57.926Z,98830.80
2018-08-10T07:14:29.086Z,98828.57
2018-08-10T07:16:59.646Z,98827.84
2018-08-10T07:19:29.958Z,98824.85
2018-08-10T07:22:01.176Z,98815.50
2018-08-10T07:24:32.396Z,98832.80
2018-08-10T07:27:02.714Z,98834.77
2018-08-10T07:29:34.181Z,98832.03
2018-08-10T07:32:04.636Z,98831.52
2018-08-10T07:34:35.050Z,98846.38
2018-08-10T07:37:06.462Z,98845.81
2018-08-10T07:39:38.237Z,98857.37
2018-08-10T07:42:08.744Z,98852.02
2018-08-10T07:44:39.839Z,98844.84
2018-08-10T07:47:11.117Z,98840.61
2018-08-10T07:49:44.314Z,98839.97
2018-08-10T07:52:15.587Z,98841.11
2018-08-10T07:54:45.746Z,98848.13
2018-08-10T07:57:16.906Z,98841.11
2018-08-10T07:59:52.100Z,98840.67
2018-08-10T08:02:23.418Z,98841.20
2018-08-10T08:04:53.550Z,98849.81
2018-08-10T08:07:23.905Z,98855.02
2018-08-10T08:09:54.790Z,98850.70
2018-08-10T08:12:25.729Z,98859.97
2018-08-10T08:14:55.978Z,98858.03
2018-08-10T08:17:26.613Z,98857.45
2018-08-10T08:19:57.090Z,98860.73
2018-08-10T08:22:29.368Z,98864.83
2018-08-10T08:24:59.743Z,98854.56
2018-08-10T08:27:29.930Z,98863.73
2018-08-10T08:30:00.157Z,98876.70
2018-08-10T08:32:31.158Z,98863.97
2018-08-10T08:35:03.098Z,98863.26
2018-08-10T08:37:33.866Z,98869.19
2018-08-10T08:40:23.526Z,98879.45
2018-08-10T08:42:54.542Z,98884.28
2018-08-10T08:45:37.702Z,98885.36
2018-08-10T08:48:08.396Z,98892.75
2018-08-10T08:50:40.742Z,98890.20
2018-08-10T08:53:11.431Z,98885.69
2018-08-10T08:55:47.490Z,98884.02
2018-08-10T08:58:17.785Z,98879.07
2018-08-10T09:00:47.980Z,98884.73
2018-08-10T09:03:29.850Z,98893.34
2018-08-10T09:06:00.848Z,98886.21
2018-08-10T09:08:32.024Z,98889.58
2018-08-10T09:11:03.820Z,98884.86
2018-08-10T09:14:44.467Z,98882.08
2018-08-10T09:17:15.243Z,98890.48
2018-08-10T09:19:45.465Z,98889.46
2018-08-10T09:22:15.773Z,98885.81
2018-08-10T09:24:46.776Z,98888.62
2018-08-10T09:27:17.431Z,98878.72
2018-08-10T09:29:48.519Z,98887.43
2018-08-10T09:32:18.818Z,98885.52
2018-08-10T09:34:48.989Z,98882.31
2018-08-10T09:37:19.232Z,98880.51
2018-08-10T09:39:49.470Z,98881.26
2018-08-10T09:42:20.406Z,98865.45
2018-08-10T09:44:50.540Z,98866.34
2018-08-10T09:47:21.041Z,98865.20
2018-08-10T09:49:51.996Z,98862.18
2018-08-10T09:52:22.189Z,98866.32
2018-08-10T09:57:05.421Z,98872.48
2018-08-10T09:59:35.573Z,98869.88
2018-08-10T10:02:08.991Z,98867.85
2018-08-10T10:04:40.245Z,98869.26
2018-08-10T10:07:10.585Z,98866.98
2018-08-10T10:09:40.891Z,98867.64
2018-08-10T10:12:11.751Z,98865.25
2018-08-10T10:14:42.047Z,98863.28
2018-08-10T10:17:15.421Z,98864.39
2018-08-10T10:19:45.663Z,98866.92
2018-08-10T10:22:15.923Z,98858.23
2018-08-10T10:24:46.350Z,98849.27
2018-08-10T10:27:16.531Z,98850.94
2018-08-10T10:29:47.476Z,98850.60
2018-08-10T10:32:18.238Z,98853.05
2018-08-10T10:34:49.292Z,98855.63
2018-08-10T10:37:20.663Z,98852.41
2018-08-10T10:39:51.027Z,98849.66
2018-08-10T10:42:22.294Z,98855.14
2018-08-10T10:47:35.137Z,98856.48
2018-08-10T10:50:10.691Z,98848.88
2018-08-10T10:52:42.831Z,98856.89
2018-08-10T10:55:13.379Z,98846.92
2018-08-10T10:57:45.129Z,98849.05
2018-08-10T11:00:17.125Z,98841.93
2018-08-10T11:02:49.753Z,98841.38
2018-08-10T11:05:26.049Z,98831.84
2018-08-10T11:07:57.338Z,98835.49
2018-08-10T11:10:28.165Z,98836.63
2018-08-10T11:12:58.720Z,98828.26
2018-08-10T11:15:29.011Z,98826.98
2018-08-10T11:17:59.232Z,98821.16
2018-08-10T11:20:29.564Z,98827.55
2018-08-10T11:22:59.813Z,98824.02
2018-08-10T11:25:30.178Z,98816.34
2018-08-10T11:28:01.038Z,98818.42
2018-08-10T11:30:31.902Z,98816.89
2018-08-10T11:33:02.292Z,98810.93
2018-08-10T11:35:35.428Z,98814.61
2018-08-10T11:38:05.630Z,98817.78
2018-08-10T11:40:35.811Z,98811.01
2018-08-10T11:43:06.056Z,98804.19
2018-08-10T11:45:36.269Z,98811.49
2018-08-10T11:48:06.526Z,98798.25
2018-08-10T11:50:36.895Z,98801.98
2018-08-10T11:53:08.713Z,98792.15
2018-08-10T11:55:44.686Z,98791.41
2018-08-10T11:58:15.413Z,98792.52
2018-08-10T12:00:45.706Z,98789.70
2018-08-10T12:03:17.225Z,98794.04
2018-08-10T12:05:51.632Z,98787.63
2018-08-10T12:08:22.647Z,98796.26
2018-08-10T12:10:52.956Z,98800.09
2018-08-10T12:13:25.868Z,98797.36
2018-08-10T12:15:57.346Z,98779.20
2018-08-10T12:18:27.632Z,98778.48
2018-08-10T12:20:58.457Z,98786.39
2018-08-10T12:23:28.893Z,98790.78
2018-08-10T12:25:59.155Z,98791.03
2018-08-10T12:28:29.421Z,98790.94
2018-08-10T12:31:00.269Z,98787.39
2018-08-10T12:33:30.993Z,98785.36
2018-08-10T12:36:01.737Z,98785.55
2018-08-10T12:38:32.083Z,98778.25
2018-08-10T12:41:02.272Z,98782.52
2018-08-10T12:43:33.140Z,98778.09
2018-08-10T12:46:06.012Z,98779.49
2018-08-10T12:48:40.275Z,98782.22
2018-08-10T12:51:10.577Z,98779.55
2018-08-10T12:53:42.758Z,98786.00
2018-08-10T12:56:12.989Z,98788.73
2018-08-10T12:58:44.271Z,98791.73
2018-08-10T13:01:14.621Z,98784.47
2018-08-10T13:03:48.129Z,98784.55
2018-08-10T13:06:23.997Z,98776.13
2018-08-10T13:08:55.559Z,98773.86
2018-08-10T13:11:25.986Z,98777.99
2018-08-10T13:13:56.361Z,98788.71
2018-08-10T13:16:27.537Z,98778.34
2018-08-10T13:19:00.327Z,98775.94
2018-08-10T13:21:31.621Z,98774.28
2018-08-10T13:24:02.222Z,98768.68
2018-08-10T13:26:34.019Z,98766.48
2018-08-10T13:29:05.335Z,98765.98
2018-08-10T13:31:35.803Z,98759.23
2018-08-10T13:34:07.526Z,98764.25
2018-08-10T13:36:38.007Z,98762.06
2018-08-10T13:39:10.901Z,98747.03
2018-08-10T13:41:43.337Z,98748.73
2018-08-10T13:44:13.828Z,98753.97
2018-08-10T13:46:44.321Z,98747.83
2018-08-10T13:49:15.885Z,98741.89
2018-08-10T13:51:46.073Z,98748.05
2018-08-10T13:54:16.309Z,98739.62
2018-08-10T13:56:46.519Z,98743.30
2018-08-10T13:59:16.797Z,98742.66
2018-08-10T14:01:47.821Z,98739.52
2018-08-10T14:04:18.865Z,98747.66
2018-08-10T14:06:49.021Z,98757.86
2018-08-10T14:09:21.385Z,98745.47
2018-08-10T14:11:51.675Z,98740.93
2018-08-10T14:14:21.839Z,98745.09
2018-08-10T14:17:01.124Z,98737.95
2018-08-10T14:19:33.157Z,98733.94
2018-08-10T14:22:03.373Z,98725.00
2018-08-10T14:24:34.077Z,98729.33
2018-08-10T14:27:04.295Z,98723.41
2018-08-10T14:29:35.097Z,98723.69
2018-08-10T14:32:06.161Z,98725.27
2018-08-10T14:34:36.525Z,98718.53
2018-08-10T14:37:06.697Z,98721.37
2018-08-10T14:39:37.847Z,98732.47
2018-08-10T14:42:08.165Z,98730.67
2018-08-10T14:44:39.838Z,98738.26
2018-08-10T14:47:13.622Z,98720.00
2018-08-10T14:49:44.288Z,98722.98
2018-08-10T14:52:15.876Z,98719.42
2018-08-10T14:54:46.157Z,98725.31
2018-08-10T14:57:16.378Z,98717.28
2018-08-10T14:59:47.769Z,98720.58
2018-08-10T15:02:19.402Z,98714.45
2018-08-10T15:04:49.742Z,98703.93
2018-08-10T15:07:20.692Z,98700.61
2018-08-10T15:09:53.876Z,98703.97
2018-08-10T15:12:25.305Z,98696.38
2018-08-10T15:14:55.232Z,98693.84
2018-08-10T15:17:26.873Z,98692.16
2018-08-10T15:19:57.133Z,98696.76
2018-08-10T15:22:29.118Z,98702.97
2018-08-10T15:24:59.828Z,98699.08
2018-08-10T15:27:29.984Z,98694.30
2018-08-10T15:30:00.077Z,98699.63
2018-08-10T15:32:30.373Z,98694.27
2018-08-10T15:35:01.652Z,98687.11
2018-08-10T15:37:31.954Z,98691.73
2018-08-10T15:40:02.569Z,98688.59
2018-08-10T15:42:33.627Z,98692.03
2018-08-10T15:45:05.826Z,98689.48
2018-08-10T15:47:37.361Z,98688.50
2018-08-10T15:50:08.618Z,98687.80
2018-08-10T15:52:40.350Z,98684.55
2018-08-10T15:55:11.015Z,98690.18
2018-08-10T15:57:44.036Z,98692.74
2018-08-10T16:00:25.297Z,98685.47
2018-08-10T16:02:55.415Z,98680.89
2018-08-10T16:05:25.858Z,98690.13
2018-08-10T16:07:56.180Z,98684.81
2018-08-10T16:10:32.604Z,98680.94
2018-08-10T16:13:05.774Z,98677.77
2018-08-10T16:15:36.088Z,98672.41
2018-08-10T16:18:16.301Z,98685.35
2018-08-10T16:20:52.993Z,98679.23
2018-08-10T16:23:23.591Z,98676.73
2018-08-10T16:25:55.066Z,98685.98
2018-08-10T16:28:27.151Z,98683.41
2018-08-10T16:30:57.426Z,98675.41
2018-08-10T16:33:28.525Z,98677.80
2018-08-10T16:35:58.804Z,98671.88
2018-08-10T16:38:29.278Z,98674.91
2018-08-10T16:41:00.019Z,98670.15
2018-08-10T16:43:30.583Z,98665.44
2018-08-10T16:46:02.098Z,98668.56
2018-08-10T16:48:33.053Z,98661.73
2018-08-10T16:51:04.894Z,98658.39
2018-08-10T16:53:35.150Z,98660.00
2018-08-10T16:56:06.601Z,98665.87
2018-08-10T16:58:39.340Z,98659.48
2018-08-10T17:01:10.258Z,98659.16
2018-08-10T17:03:41.160Z,98663.77
2018-08-10T17:06:11.452Z,98663.70
2018-08-10T17:08:43.357Z,98671.22
2018-08-10T17:11:14.374Z,98665.22
2018-08-10T17:13:44.664Z,98663.26
2018-08-10T17:16:15.015Z,98659.83
2018-08-10T17:18:46.301Z,98665.77
2018-08-10T17:21:16.527Z,98669.83
2018-08-10T17:23:47.621Z,98670.57
2018-08-10T17:26:19.751Z,98665.17
2018-08-10T17:28:51.254Z,98670.71
2018-08-10T17:31:23.136Z,98672.93
2018-08-10T17:33:53.457Z,98669.58
2018-08-10T17:36:34.208Z,98668.59
2018-08-10T17:39:07.994Z,98672.39
2018-08-10T17:41:42.849Z,98672.61
2018-08-10T17:44:14.906Z,98672.09
2018-08-10T17:46:45.168Z,98673.33
2018-08-10T17:49:15.883Z,98678.61
2018-08-10T17:51:47.997Z,98677.60
2018-08-10T17:57:00.220Z,98676.33
2018-08-10T17:59:30.841Z,98677.47
2018-08-10T18:02:02.885Z,98679.02
2018-08-10T18:04:33.965Z,98678.12
2018-08-10T18:07:04.246Z,98681.03
2018-08-10T18:09:34.715Z,98690.72
2018-08-10T18:12:06.754Z,98690.40
2018-08-10T18:14:39.278Z,98699.77
2018-08-10T18:17:16.377Z,98702.25
2018-08-10T18:19:47.116Z,98698.42
2018-08-10T18:22:18.804Z,98696.05
2018-08-10T18:24:50.737Z,98707.83
2018-08-10T18:27:22.215Z,98701.48
2018-08-10T18:29:57.419Z,98701.36
2018-08-10T18:32:31.530Z,98703.44
2018-08-10T18:35:01.675Z,98706.69
2018-08-10T18:37:32.508Z,98713.17
2018-08-10T18:40:03.640Z,98710.03
2018-08-10T18:42:34.043Z,98712.69
2018-08-10T18:45:06.830Z,98719.91
2018-08-10T18:47:37.686Z,98714.06
2018-08-10T18:50:09.518Z,98714.67
2018-08-10T18:52:40.573Z,98712.87
2018-08-10T18:55:15.813Z,98710.93
2018-08-10T18:57:46.157Z,98716.00
2018-08-10T19:00:22.053Z,98718.47
2018-08-10T19:02:53.625Z,98723.55
2018-08-10T19:05:23.936Z,98725.72
2018-08-10T19:07:54.149Z,98733.63
2018-08-10T19:10:28.345Z,98736.41
2018-08-10T19:12:58.731Z,98750.72
2018-08-10T19:15:31.194Z,98757.37
2018-08-10T19:18:02.532Z,98749.55
2018-08-10T19:20:35.932Z,98756.44
2018-08-10T19:23:07.495Z,98760.55
2018-08-10T19:25:38.240Z,98757.88
2018-08-10T19:28:12.323Z,98757.05
2018-08-10T19:30:42.793Z,98755.80
2018-08-10T19:33:13.957Z,98760.49
2018-08-10T19:35:44.502Z,98765.77
2018-08-10T19:38:15.944Z,98769.75
2018-08-10T19:40:47.789Z,98763.23
2018-08-10T19:43:18.059Z,98768.00
2018-08-10T19:45:49.643Z,98767.32
2018-08-10T19:48:21.092Z,98769.34
2018-08-10T19:50:54.636Z,98761.44
2018-08-10T19:53:25.036Z,98764.94
2018-08-10T19:55:57.679Z,98761.87
2018-08-10T19:58:28.989Z,98762.45
2018-08-10T20:00:59.801Z,98771.20
2018-08-10T20:03:31.585Z,98773.06
2018-08-10T20:06:04.187Z,98768.22
2018-08-10T20:08:36.536Z,98767.95
2018-08-10T20:11:07.143Z,98768.48
2018-08-10T20:13:39.458Z,98760.78
2018-08-10T20:16:11.124Z,98761.36
2018-08-10T20:18:41.523Z,98763.34
2018-08-10T20:21:12.297Z,98759.03
2018-08-10T20:23:43.453Z,98761.23
2018-08-10T20:26:13.626Z,98757.73
2018-08-10T20:28:46.085Z,98761.71
2018-08-10T20:31:16.986Z,98761.16
2018-08-10T20:33:50.210Z,98761.95
2018-08-10T20:36:21.068Z,98766.55
2018-08-10T20:38:52.162Z,98760.41
2018-08-10T20:41:23.948Z,98769.94
2018-08-10T20:43:56.273Z,98764.17
2018-08-10T20:46:27.894Z,98760.95
2018-08-10T20:48:59.322Z,98762.75
2018-08-10T20:51:29.853Z,98760.46
2018-08-10T20:54:00.548Z,98758.33
2018-08-10T20:56:30.952Z,98760.80
2018-08-10T20:59:01.995Z,98764.97
2018-08-10T21:01:35.811Z,98771.09
2018-08-10T21:04:09.112Z,98762.42
2018-08-10T21:06:41.996Z,98761.75
2018-08-10T21:09:13.692Z,98769.39
2018-08-10T21:11:46.177Z,98768.88
2018-08-10T21:14:17.512Z,98767.55
2018-08-10T21:16:49.531Z,98767.36
2018-08-10T21:19:20.142Z,98764.40
2018-08-10T21:21:52.685Z,98769.97
2018-08-10T21:24:25.015Z,98768.64
2018-08-10T21:26:56.077Z,98768.78
2018-08-10T21:29:27.567Z,98769.25
2018-08-10T21:32:00.931Z,98771.33
2018-08-10T21:34:33.539Z,98770.61
2018-08-10T21:37:04.861Z,98763.20
2018-08-10T21:39:35.586Z,98766.25
2018-08-10T21:42:07.185Z,98764.96
2018-08-10T21:44:39.332Z,98764.77
2018-08-10T21:47:14.940Z,98769.67
2018-08-10T21:49:46.540Z,98776.22
2018-08-10T21:52:17.751Z,98770.02
2018-08-10T21:54:48.066Z,98772.02
2018-08-10T21:57:18.707Z,98771.55
2018-08-10T21:59:49.713Z,98775.12
2018-08-10T22:02:20.840Z,98768.83
2018-08-10T22:04:50.885Z,98776.28
2018-08-10T22:07:21.092Z,98775.80
2018-08-10T22:09:52.243Z,98769.78
2018-08-10T22:12:22.422Z,98770.06
2018-08-10T22:14:59.386Z,98772.63
2018-08-10T22:18:38.198Z,98773.02
2018-08-10T22:21:10.023Z,98771.98
2018-08-10T22:26:38.881Z,98767.64
2018-08-10T22:29:10.472Z,98766.63
2018-08-10T22:31:46.469Z,98762.75
2018-08-10T22:34:17.095Z,98758.81
2018-08-10T22:36:47.868Z,98758.31
2018-08-10T22:39:18.626Z,98760.13
2018-08-10T22:41:50.671Z,98758.31
2018-08-10T22:44:21.463Z,98759.84
2018-08-10T22:46:52.055Z,98753.59
2018-08-10T22:49:23.321Z,98764.52
2018-08-10T22:51:54.849Z,98756.06
2018-08-10T22:54:25.555Z,98758.31
2018-08-10T22:56:56.251Z,98755.17
2018-08-10T22:59:26.646Z,98751.22
2018-08-10T23:01:57.306Z,98752.16
2018-08-10T23:04:31.615Z,98755.55
2018-08-10T23:07:02.454Z,98747.42
2018-08-10T23:09:32.604Z,98744.88
2018-08-10T23:12:03.662Z,98743.08
2018-08-10T23:14:34.773Z,98747.02
2018-08-10T23:17:05.531Z,98744.86
2018-08-10T23:19:35.847Z,98752.89
2018-08-10T23:22:05.882Z,98747.70
2018-08-10T23:24:36.067Z,98748.02
2018-08-10T23:27:07.625Z,98748.84
2018-08-10T23:29:38.379Z,98752.13
2018-08-10T23:32:08.562Z,98748.09
2018-08-10T23:34:39.696Z,98751.96
2018-08-10T23:37:11.046Z,98747.28
2018-08-10T23:39:42.764Z,98747.64
2018-08-10T23:42:14.213Z,98745.61
2018-08-10T23:44:45.289Z,98743.89
2018-08-10T23:47:15.514Z,98737.08
2018-08-10T23:49:45.907Z,98732.56
2018-08-10T23:52:15.986Z,98731.08
2018-08-10T23:54:46.128Z,98732.09
2018-08-10T23:57:16.268Z,98725.95
2018-08-10T23:59:46.336Z,98724.84
